sensor_id;sensor_type;location;lat;lon;timestamp;temperature;humidity
22288;DHT22;11312;51.464;6.968;2024-01-15T00:00:19;1.40;99.90
22288;DHT22;11312;51.464;6.968;2024-01-15T00:02:45;1.30;99.90
22288;DHT22;11312;51.464;6.968;2024-01-15T00:05:10;1.30;99.90
22288;DHT22;11312;51.464;6.968;2024-01-15T00:07:36;1.30;99.90
22288;DHT22;11312;51.464;6.968;2024-01-15T00:10:02;1.30;99.90
22288;DHT22;11312;51.464;6.968;2024-01-15T00:12:28;1.30;99.90
22288;DHT22;11312;51.464;6.968;2024-01-15T00:14:53;1.40;99.90
22288;DHT22;11312;51.464;6.968;2024-01-15T00:17:19;1.50;99.90
22288;DHT22;11312;51.464;6.968;2024-01-15T00:19:45;1.50;99.90
22288;DHT22;11312;51.464;6.968;2024-01-15T00:22:10;1.50;99.90
22288;DHT22;11312;51.464;6.968;2024-01-15T00:24:36;1.40;99.90
22288;DHT22;11312;51.464;6.968;2024-01-15T00:27:02;1.40;99.90
22288;DHT22;11312;51.464;6.968;2024-01-15T00:29:27;1.50;99.90
22288;DHT22;11312;51.464;6.968;2024-01-15T00:31:53;1.40;99.90
22288;DHT22;11312;51.464;6.968;2024-01-15T00:34:18;1.40;99.90
22288;DHT22;11312;51.464;6.968;2024-01-15T00:36:44;1.40;99.90
22288;DHT22;11312;51.464;6.968;2024-01-15T00:39:10;1.50;99.90
22288;DHT22;11312;51.464;6.968;2024-01-15T00:41:36;1.50;99.90
22288;DHT22;11312;51.464;6.968;2024-01-15T00:44:02;1.40;99.90
22288;DHT22;11312;51.464;6.968;2024-01-15T00:46:28;1.50;99.90
22288;DHT22;11312;51.464;6.968;2024-01-15T00:48:54;1.40;99.90
22288;DHT22;11312;51.464;6.968;2024-01-15T00:51:20;1.40;99.90
22288;DHT22;11312;51.464;6.968;2024-01-15T00:53:45;1.50;99.90
22288;DHT22;11312;51.464;6.968;2024-01-15T00:56:11;1.40;99.90
22288;DHT22;11312;51.464;6.968;2024-01-15T00:58:36;1.50;99.90
22288;DHT22;11312;51.464;6.968;2024-01-15T01:01:02;1.50;99.90
22288;DHT22;11312;51.464;6.968;2024-01-15T01:03:28;1.50;99.90
22288;DHT22;11312;51.464;6.968;2024-01-15T01:05:53;1.50;99.90
22288;DHT22;11312;51.464;6.968;2024-01-15T01:08:19;1.50;99.90
22288;DHT22;11312;51.464;6.968;2024-01-15T01:10:44;1.50;99.90
22288;DHT22;11312;51.464;6.968;2024-01-15T01:13:10;1.60;99.90
22288;DHT22;11312;51.464;6.968;2024-01-15T01:15:36;1.50;99.90
22288;DHT22;11312;51.464;6.968;2024-01-15T01:18:02;1.60;99.90
22288;DHT22;11312;51.464;6.968;2024-01-15T01:20:27;1.60;99.90
22288;DHT22;11312;51.464;6.968;2024-01-15T01:22:53;1.50;99.90
22288;DHT22;11312;51.464;6.968;2024-01-15T01:25:19;1.50;99.90
22288;DHT22;11312;51.464;6.968;2024-01-15T01:27:44;1.50;99.90
22288;DHT22;11312;51.464;6.968;2024-01-15T01:30:10;1.50;99.90
22288;DHT22;11312;51.464;6.968;2024-01-15T01:32:35;1.50;99.90
22288;DHT22;11312;51.464;6.968;2024-01-15T01:35:01;1.50;99.90
22288;DHT22;11312;51.464;6.968;2024-01-15T01:37:27;1.50;99.90
22288;DHT22;11312;51.464;6.968;2024-01-15T01:39:53;1.50;99.90
22288;DHT22;11312;51.464;6.968;2024-01-15T01:42:18;1.50;99.90
22288;DHT22;11312;51.464;6.968;2024-01-15T01:44:44;1.60;99.90
22288;DHT22;11312;51.464;6.968;2024-01-15T01:47:09;1.50;99.90
22288;DHT22;11312;51.464;6.968;2024-01-15T01:49:36;1.50;99.90
22288;DHT22;11312;51.464;6.968;2024-01-15T01:52:02;1.50;99.90
22288;DHT22;11312;51.464;6.968;2024-01-15T01:54:31;1.60;99.90
22288;DHT22;11312;51.464;6.968;2024-01-15T01:56:58;1.50;99.90
22288;DHT22;11312;51.464;6.968;2024-01-15T01:59:26;1.50;99.90
22288;DHT22;11312;51.464;6.968;2024-01-15T02:01:54;1.50;99.90
22288;DHT22;11312;51.464;6.968;2024-01-15T02:04:20;1.70;99.90
22288;DHT22;11312;51.464;6.968;2024-01-15T02:06:47;1.60;99.90
22288;DHT22;11312;51.464;6.968;2024-01-15T02:09:13;1.60;99.90
22288;DHT22;11312;51.464;6.968;2024-01-15T02:11:46;1.60;99.90
22288;DHT22;11312;51.464;6.968;2024-01-15T02:14:11;1.60;99.90
22288;DHT22;11312;51.464;6.968;2024-01-15T02:16:37;1.60;99.90
22288;DHT22;11312;51.464;6.968;2024-01-15T02:19:03;1.60;99.90
22288;DHT22;11312;51.464;6.968;2024-01-15T02:21:28;1.70;99.90
22288;DHT22;11312;51.464;6.968;2024-01-15T02:23:57;1.70;99.90
22288;DHT22;11312;51.464;6.968;2024-01-15T02:26:23;1.60;99.90
22288;DHT22;11312;51.464;6.968;2024-01-15T02:28:49;1.60;99.90
22288;DHT22;11312;51.464;6.968;2024-01-15T02:31:15;1.50;99.90
22288;DHT22;11312;51.464;6.968;2024-01-15T02:33:42;1.50;99.90
22288;DHT22;11312;51.464;6.968;2024-01-15T02:36:08;1.50;99.90
22288;DHT22;11312;51.464;6.968;2024-01-15T02:38:33;1.50;99.90
22288;DHT22;11312;51.464;6.968;2024-01-15T02:40:59;1.50;99.90
22288;DHT22;11312;51.464;6.968;2024-01-15T02:43:25;1.60;99.90
22288;DHT22;11312;51.464;6.968;2024-01-15T02:45:50;1.50;99.90
22288;DHT22;11312;51.464;6.968;2024-01-15T02:48:16;1.50;99.90
22288;DHT22;11312;51.464;6.968;2024-01-15T02:50:42;1.50;99.90
22288;DHT22;11312;51.464;6.968;2024-01-15T02:53:07;1.50;99.90
22288;DHT22;11312;51.464;6.968;2024-01-15T02:55:33;1.60;99.90
22288;DHT22;11312;51.464;6.968;2024-01-15T02:57:59;1.60;99.90
22288;DHT22;11312;51.464;6.968;2024-01-15T03:00:24;1.60;99.90
22288;DHT22;11312;51.464;6.968;2024-01-15T03:02:51;1.60;99.90
22288;DHT22;11312;51.464;6.968;2024-01-15T03:05:16;1.60;99.90
22288;DHT22;11312;51.464;6.968;2024-01-15T03:07:42;1.70;99.90
22288;DHT22;11312;51.464;6.968;2024-01-15T03:10:09;1.60;99.90
22288;DHT22;11312;51.464;6.968;2024-01-15T03:12:34;1.60;99.90
22288;DHT22;11312;51.464;6.968;2024-01-15T03:15:00;1.50;99.90
22288;DHT22;11312;51.464;6.968;2024-01-15T03:17:25;1.60;99.90
22288;DHT22;11312;51.464;6.968;2024-01-15T03:19:51;1.70;99.90
22288;DHT22;11312;51.464;6.968;2024-01-15T03:22:17;1.70;99.90
22288;DHT22;11312;51.464;6.968;2024-01-15T03:24:43;1.60;99.90
22288;DHT22;11312;51.464;6.968;2024-01-15T03:27:09;1.60;99.90
22288;DHT22;11312;51.464;6.968;2024-01-15T03:29:34;1.60;99.90
22288;DHT22;11312;51.464;6.968;2024-01-15T03:32:00;1.60;99.90
22288;DHT22;11312;51.464;6.968;2024-01-15T03:34:25;1.70;99.90
22288;DHT22;11312;51.464;6.968;2024-01-15T03:36:51;1.60;99.90
22288;DHT22;11312;51.464;6.968;2024-01-15T03:39:17;1.70;99.90
22288;DHT22;11312;51.464;6.968;2024-01-15T03:41:42;1.70;99.90
22288;DHT22;11312;51.464;6.968;2024-01-15T03:44:08;1.70;99.90
22288;DHT22;11312;51.464;6.968;2024-01-15T03:46:34;1.60;99.90
22288;DHT22;11312;51.464;6.968;2024-01-15T03:48:59;1.60;99.90
22288;DHT22;11312;51.464;6.968;2024-01-15T03:51:25;1.60;99.90
22288;DHT22;11312;51.464;6.968;2024-01-15T03:53:50;1.60;99.90
22288;DHT22;11312;51.464;6.968;2024-01-15T03:56:16;1.60;99.90
22288;DHT22;11312;51.464;6.968;2024-01-15T03:58:42;1.60;99.90
22288;DHT22;11312;51.464;6.968;2024-01-15T04:01:09;1.60;99.90
22288;DHT22;11312;51.464;6.968;2024-01-15T04:03:35;1.60;99.90
22288;DHT22;11312;51.464;6.968;2024-01-15T04:06:00;1.60;99.90
22288;DHT22;11312;51.464;6.968;2024-01-15T04:08:26;1.50;99.90
22288;DHT22;11312;51.464;6.968;2024-01-15T04:10:51;1.60;99.90
22288;DHT22;11312;51.464;6.968;2024-01-15T04:13:17;1.60;99.90
22288;DHT22;11312;51.464;6.968;2024-01-15T04:15:43;1.60;99.90
22288;DHT22;11312;51.464;6.968;2024-01-15T04:18:08;1.60;99.90
22288;DHT22;11312;51.464;6.968;2024-01-15T04:20:34;1.60;99.90
22288;DHT22;11312;51.464;6.968;2024-01-15T04:23:00;1.50;99.90
22288;DHT22;11312;51.464;6.968;2024-01-15T04:25:26;1.70;99.90
22288;DHT22;11312;51.464;6.968;2024-01-15T04:27:52;1.80;99.90
22288;DHT22;11312;51.464;6.968;2024-01-15T04:30:17;1.70;99.90
22288;DHT22;11312;51.464;6.968;2024-01-15T04:32:43;1.60;99.90
22288;DHT22;11312;51.464;6.968;2024-01-15T04:35:08;1.60;99.90
22288;DHT22;11312;51.464;6.968;2024-01-15T04:37:34;1.60;99.90
22288;DHT22;11312;51.464;6.968;2024-01-15T04:40:00;1.70;99.90
22288;DHT22;11312;51.464;6.968;2024-01-15T04:42:25;1.60;99.90
22288;DHT22;11312;51.464;6.968;2024-01-15T04:44:51;1.60;99.90
22288;DHT22;11312;51.464;6.968;2024-01-15T04:47:17;1.60;99.90
22288;DHT22;11312;51.464;6.968;2024-01-15T04:49:43;1.60;99.90
22288;DHT22;11312;51.464;6.968;2024-01-15T04:52:08;1.60;99.90
22288;DHT22;11312;51.464;6.968;2024-01-15T04:54:36;1.60;99.90
22288;DHT22;11312;51.464;6.968;2024-01-15T04:57:01;1.60;99.90
22288;DHT22;11312;51.464;6.968;2024-01-15T04:59:28;1.70;99.90
22288;DHT22;11312;51.464;6.968;2024-01-15T05:01:54;1.80;99.90
22288;DHT22;11312;51.464;6.968;2024-01-15T05:04:20;1.60;99.90
22288;DHT22;11312;51.464;6.968;2024-01-15T05:06:46;1.60;99.90
22288;DHT22;11312;51.464;6.968;2024-01-15T05:09:11;1.60;99.90
22288;DHT22;11312;51.464;6.968;2024-01-15T05:11:39;1.60;99.90
22288;DHT22;11312;51.464;6.968;2024-01-15T05:14:04;1.60;99.90
22288;DHT22;11312;51.464;6.968;2024-01-15T05:16:30;1.60;99.90
22288;DHT22;11312;51.464;6.968;2024-01-15T05:18:55;1.60;99.90
22288;DHT22;11312;51.464;6.968;2024-01-15T05:21:21;1.60;99.90
22288;DHT22;11312;51.464;6.968;2024-01-15T05:23:47;1.50;99.90
22288;DHT22;11312;51.464;6.968;2024-01-15T05:26:12;1.60;99.90
22288;DHT22;11312;51.464;6.968;2024-01-15T05:28:38;1.50;99.90
22288;DHT22;11312;51.464;6.968;2024-01-15T05:31:03;1.50;99.90
22288;DHT22;11312;51.464;6.968;2024-01-15T05:33:29;1.50;99.90
22288;DHT22;11312;51.464;6.968;2024-01-15T05:35:55;1.60;99.90
22288;DHT22;11312;51.464;6.968;2024-01-15T05:38:21;1.50;99.90
22288;DHT22;11312;51.464;6.968;2024-01-15T05:40:47;1.60;99.90
22288;DHT22;11312;51.464;6.968;2024-01-15T05:43:13;1.50;99.90
22288;DHT22;11312;51.464;6.968;2024-01-15T05:45:42;1.60;99.90
22288;DHT22;11312;51.464;6.968;2024-01-15T05:48:08;1.50;99.90
22288;DHT22;11312;51.464;6.968;2024-01-15T05:50:33;1.50;99.90
22288;DHT22;11312;51.464;6.968;2024-01-15T05:52:59;1.50;99.90
22288;DHT22;11312;51.464;6.968;2024-01-15T05:55:24;1.60;99.90
22288;DHT22;11312;51.464;6.968;2024-01-15T05:57:50;1.60;99.90
22288;DHT22;11312;51.464;6.968;2024-01-15T06:00:16;1.60;99.90
22288;DHT22;11312;51.464;6.968;2024-01-15T06:02:41;1.60;99.90
22288;DHT22;11312;51.464;6.968;2024-01-15T06:05:07;1.60;99.90
22288;DHT22;11312;51.464;6.968;2024-01-15T06:07:36;1.70;99.90
22288;DHT22;11312;51.464;6.968;2024-01-15T06:10:02;1.60;99.90
22288;DHT22;11312;51.464;6.968;2024-01-15T06:12:31;1.70;99.90
22288;DHT22;11312;51.464;6.968;2024-01-15T06:14:57;1.60;99.90
22288;DHT22;11312;51.464;6.968;2024-01-15T06:17:23;1.70;99.90
22288;DHT22;11312;51.464;6.968;2024-01-15T06:19:48;1.80;99.90
22288;DHT22;11312;51.464;6.968;2024-01-15T06:22:14;1.80;99.90
22288;DHT22;11312;51.464;6.968;2024-01-15T06:24:39;1.80;99.90
22288;DHT22;11312;51.464;6.968;2024-01-15T06:27:05;1.70;99.90
22288;DHT22;11312;51.464;6.968;2024-01-15T06:29:32;1.70;99.90
22288;DHT22;11312;51.464;6.968;2024-01-15T06:31:57;1.70;99.90
22288;DHT22;11312;51.464;6.968;2024-01-15T06:34:23;1.70;99.90
22288;DHT22;11312;51.464;6.968;2024-01-15T06:36:48;1.70;99.90
22288;DHT22;11312;51.464;6.968;2024-01-15T06:39:14;1.80;99.90
22288;DHT22;11312;51.464;6.968;2024-01-15T06:41:40;1.90;99.90
22288;DHT22;11312;51.464;6.968;2024-01-15T06:44:12;2.00;99.90
22288;DHT22;11312;51.464;6.968;2024-01-15T06:46:45;1.90;99.90
22288;DHT22;11312;51.464;6.968;2024-01-15T06:49:11;1.80;99.90
22288;DHT22;11312;51.464;6.968;2024-01-15T06:51:37;1.90;99.90
22288;DHT22;11312;51.464;6.968;2024-01-15T06:54:03;1.80;99.90
22288;DHT22;11312;51.464;6.968;2024-01-15T06:56:29;1.80;99.90
22288;DHT22;11312;51.464;6.968;2024-01-15T06:58:54;1.90;99.90
22288;DHT22;11312;51.464;6.968;2024-01-15T07:01:20;1.90;99.90
22288;DHT22;11312;51.464;6.968;2024-01-15T07:03:46;1.90;99.90
22288;DHT22;11312;51.464;6.968;2024-01-15T07:06:12;1.90;99.90
22288;DHT22;11312;51.464;6.968;2024-01-15T07:08:39;1.90;99.90
22288;DHT22;11312;51.464;6.968;2024-01-15T07:11:05;1.80;99.90
22288;DHT22;11312;51.464;6.968;2024-01-15T07:13:31;1.90;99.90
22288;DHT22;11312;51.464;6.968;2024-01-15T07:15:57;3.30;99.90
22288;DHT22;11312;51.464;6.968;2024-01-15T07:18:23;1.90;99.90
22288;DHT22;11312;51.464;6.968;2024-01-15T07:20:49;1.80;99.90
22288;DHT22;11312;51.464;6.968;2024-01-15T07:23:14;1.90;99.90
22288;DHT22;11312;51.464;6.968;2024-01-15T07:25:40;1.90;99.90
22288;DHT22;11312;51.464;6.968;2024-01-15T07:28:07;1.90;99.90
22288;DHT22;11312;51.464;6.968;2024-01-15T07:30:32;1.90;99.90
22288;DHT22;11312;51.464;6.968;2024-01-15T07:32:58;2.00;99.90
22288;DHT22;11312;51.464;6.968;2024-01-15T07:35:24;1.80;99.90
22288;DHT22;11312;51.464;6.968;2024-01-15T07:37:49;2.00;99.90
22288;DHT22;11312;51.464;6.968;2024-01-15T07:40:15;1.80;99.90
22288;DHT22;11312;51.464;6.968;2024-01-15T07:42:41;1.90;99.90
22288;DHT22;11312;51.464;6.968;2024-01-15T07:45:10;1.80;99.90
22288;DHT22;11312;51.464;6.968;2024-01-15T07:47:36;1.80;99.90
22288;DHT22;11312;51.464;6.968;2024-01-15T07:50:02;1.70;99.90
22288;DHT22;11312;51.464;6.968;2024-01-15T07:52:28;1.70;99.90
22288;DHT22;11312;51.464;6.968;2024-01-15T07:54:53;1.70;99.90
22288;DHT22;11312;51.464;6.968;2024-01-15T07:57:20;1.70;99.90
22288;DHT22;11312;51.464;6.968;2024-01-15T07:59:45;1.80;99.90
22288;DHT22;11312;51.464;6.968;2024-01-15T08:02:11;1.70;99.90
22288;DHT22;11312;51.464;6.968;2024-01-15T08:04:38;1.70;99.90
22288;DHT22;11312;51.464;6.968;2024-01-15T08:07:06;1.60;99.90
22288;DHT22;11312;51.464;6.968;2024-01-15T08:09:35;1.50;99.90
22288;DHT22;11312;51.464;6.968;2024-01-15T08:12:00;1.50;99.90
22288;DHT22;11312;51.464;6.968;2024-01-15T08:14:26;1.50;99.90
22288;DHT22;11312;51.464;6.968;2024-01-15T08:16:52;1.50;99.90
22288;DHT22;11312;51.464;6.968;2024-01-15T08:19:17;1.50;99.90
22288;DHT22;11312;51.464;6.968;2024-01-15T08:21:45;1.50;99.90
22288;DHT22;11312;51.464;6.968;2024-01-15T08:24:11;1.60;99.90
22288;DHT22;11312;51.464;6.968;2024-01-15T08:26:37;1.50;99.90
22288;DHT22;11312;51.464;6.968;2024-01-15T08:29:03;1.50;99.90
22288;DHT22;11312;51.464;6.968;2024-01-15T08:31:28;1.70;99.90
22288;DHT22;11312;51.464;6.968;2024-01-15T08:33:54;1.70;99.90
22288;DHT22;11312;51.464;6.968;2024-01-15T08:36:21;1.60;99.90
22288;DHT22;11312;51.464;6.968;2024-01-15T08:38:47;1.70;99.90
22288;DHT22;11312;51.464;6.968;2024-01-15T08:41:13;1.80;99.90
22288;DHT22;11312;51.464;6.968;2024-01-15T08:43:39;1.60;99.90
22288;DHT22;11312;51.464;6.968;2024-01-15T08:46:05;1.70;99.90
22288;DHT22;11312;51.464;6.968;2024-01-15T08:48:31;1.80;99.90
22288;DHT22;11312;51.464;6.968;2024-01-15T08:50:57;1.70;99.90
22288;DHT22;11312;51.464;6.968;2024-01-15T08:53:23;1.60;99.90
22288;DHT22;11312;51.464;6.968;2024-01-15T08:55:49;1.80;99.90
22288;DHT22;11312;51.464;6.968;2024-01-15T08:58:15;1.60;99.90
22288;DHT22;11312;51.464;6.968;2024-01-15T09:00:40;1.60;99.90
22288;DHT22;11312;51.464;6.968;2024-01-15T09:03:06;1.30;99.90
22288;DHT22;11312;51.464;6.968;2024-01-15T09:05:32;1.40;99.90
22288;DHT22;11312;51.464;6.968;2024-01-15T09:07:57;1.60;99.90
22288;DHT22;11312;51.464;6.968;2024-01-15T09:10:23;1.70;99.90
22288;DHT22;11312;51.464;6.968;2024-01-15T09:12:49;1.60;99.90
22288;DHT22;11312;51.464;6.968;2024-01-15T09:15:15;1.50;99.90
22288;DHT22;11312;51.464;6.968;2024-01-15T09:17:40;1.60;99.90
22288;DHT22;11312;51.464;6.968;2024-01-15T09:20:08;1.40;99.90
22288;DHT22;11312;51.464;6.968;2024-01-15T09:22:34;1.40;99.90
22288;DHT22;11312;51.464;6.968;2024-01-15T09:25:00;1.40;99.90
22288;DHT22;11312;51.464;6.968;2024-01-15T09:27:26;1.50;99.90
22288;DHT22;11312;51.464;6.968;2024-01-15T09:29:52;1.50;99.90
22288;DHT22;11312;51.464;6.968;2024-01-15T09:32:18;1.60;99.90
22288;DHT22;11312;51.464;6.968;2024-01-15T09:34:45;1.50;99.90
22288;DHT22;11312;51.464;6.968;2024-01-15T09:37:12;1.50;99.90
22288;DHT22;11312;51.464;6.968;2024-01-15T09:39:37;1.50;99.90
22288;DHT22;11312;51.464;6.968;2024-01-15T09:42:03;1.50;99.90
22288;DHT22;11312;51.464;6.968;2024-01-15T09:44:31;1.50;99.90
22288;DHT22;11312;51.464;6.968;2024-01-15T09:46:57;1.60;99.90
22288;DHT22;11312;51.464;6.968;2024-01-15T09:49:23;1.70;99.90
22288;DHT22;11312;51.464;6.968;2024-01-15T09:51:49;1.90;99.90
22288;DHT22;11312;51.464;6.968;2024-01-15T09:54:16;1.90;99.90
22288;DHT22;11312;51.464;6.968;2024-01-15T09:56:45;1.70;99.90
22288;DHT22;11312;51.464;6.968;2024-01-15T09:59:17;1.70;99.90
22288;DHT22;11312;51.464;6.968;2024-01-15T10:01:47;1.90;99.90
22288;DHT22;11312;51.464;6.968;2024-01-15T10:04:15;2.10;99.90
22288;DHT22;11312;51.464;6.968;2024-01-15T10:06:46;1.80;99.90
22288;DHT22;11312;51.464;6.968;2024-01-15T10:09:13;1.80;99.90
22288;DHT22;11312;51.464;6.968;2024-01-15T10:11:42;1.70;99.90
22288;DHT22;11312;51.464;6.968;2024-01-15T10:14:09;1.70;99.90
22288;DHT22;11312;51.464;6.968;2024-01-15T10:16:40;1.80;99.90
22288;DHT22;11312;51.464;6.968;2024-01-15T10:19:10;1.80;99.90
22288;DHT22;11312;51.464;6.968;2024-01-15T10:21:36;1.70;99.90
22288;DHT22;11312;51.464;6.968;2024-01-15T10:24:03;1.60;99.90
22288;DHT22;11312;51.464;6.968;2024-01-15T10:26:30;1.60;99.90
22288;DHT22;11312;51.464;6.968;2024-01-15T10:28:56;1.60;99.90
22288;DHT22;11312;51.464;6.968;2024-01-15T10:31:21;1.70;99.90
22288;DHT22;11312;51.464;6.968;2024-01-15T10:33:48;1.70;99.90
22288;DHT22;11312;51.464;6.968;2024-01-15T10:36:15;1.70;99.90
22288;DHT22;11312;51.464;6.968;2024-01-15T10:38:42;1.80;99.90
22288;DHT22;11312;51.464;6.968;2024-01-15T10:41:08;1.80;99.90
22288;DHT22;11312;51.464;6.968;2024-01-15T10:43:34;1.90;99.90
22288;DHT22;11312;51.464;6.968;2024-01-15T10:46:00;1.80;99.90
22288;DHT22;11312;51.464;6.968;2024-01-15T10:48:26;1.90;99.90
22288;DHT22;11312;51.464;6.968;2024-01-15T10:50:54;1.90;99.90
22288;DHT22;11312;51.464;6.968;2024-01-15T10:53:21;1.70;99.90
22288;DHT22;11312;51.464;6.968;2024-01-15T10:55:48;1.80;99.90
22288;DHT22;11312;51.464;6.968;2024-01-15T10:58:16;1.90;99.90
22288;DHT22;11312;51.464;6.968;2024-01-15T11:00:43;1.90;99.90
22288;DHT22;11312;51.464;6.968;2024-01-15T11:03:09;2.10;99.90
22288;DHT22;11312;51.464;6.968;2024-01-15T11:05:39;2.10;99.90
22288;DHT22;11312;51.464;6.968;2024-01-15T11:08:07;2.00;99.90
22288;DHT22;11312;51.464;6.968;2024-01-15T11:10:47;2.30;99.90
22288;DHT22;11312;51.464;6.968;2024-01-15T11:16:07;2.30;99.90
22288;DHT22;11312;51.464;6.968;2024-01-15T11:26:36;1.90;99.90
22288;DHT22;11312;51.464;6.968;2024-01-15T11:29:04;1.90;99.90
22288;DHT22;11312;51.464;6.968;2024-01-15T11:34:16;2.20;99.90
22288;DHT22;11312;51.464;6.968;2024-01-15T11:42:01;2.10;99.90
22288;DHT22;11312;51.464;6.968;2024-01-15T11:44:28;2.00;99.90
22288;DHT22;11312;51.464;6.968;2024-01-15T11:47:08;1.80;99.90
22288;DHT22;11312;51.464;6.968;2024-01-15T11:52:20;1.90;99.90
22288;DHT22;11312;51.464;6.968;2024-01-15T11:57:41;2.10;99.90
22288;DHT22;11312;51.464;6.968;2024-01-15T12:00:10;2.10;99.90
22288;DHT22;11312;51.464;6.968;2024-01-15T12:02:41;2.20;99.90
22288;DHT22;11312;51.464;6.968;2024-01-15T12:05:10;2.10;99.90
22288;DHT22;11312;51.464;6.968;2024-01-15T12:07:38;2.10;99.90
22288;DHT22;11312;51.464;6.968;2024-01-15T12:10:08;2.00;99.90
22288;DHT22;11312;51.464;6.968;2024-01-15T12:13:06;2.00;99.90
22288;DHT22;11312;51.464;6.968;2024-01-15T12:15:35;2.00;99.90
22288;DHT22;11312;51.464;6.968;2024-01-15T12:18:02;2.10;99.90
22288;DHT22;11312;51.464;6.968;2024-01-15T12:20:29;2.10;99.90
22288;DHT22;11312;51.464;6.968;2024-01-15T12:22:55;2.30;99.90
22288;DHT22;11312;51.464;6.968;2024-01-15T12:25:22;2.40;99.90
22288;DHT22;11312;51.464;6.968;2024-01-15T12:27:48;2.60;99.90
22288;DHT22;11312;51.464;6.968;2024-01-15T12:30:14;2.50;99.90
22288;DHT22;11312;51.464;6.968;2024-01-15T12:32:43;2.60;99.90
22288;DHT22;11312;51.464;6.968;2024-01-15T12:35:12;2.50;99.90
22288;DHT22;11312;51.464;6.968;2024-01-15T12:37:39;2.50;99.90
22288;DHT22;11312;51.464;6.968;2024-01-15T12:40:05;2.50;99.90
22288;DHT22;11312;51.464;6.968;2024-01-15T12:42:36;2.30;99.90
22288;DHT22;11312;51.464;6.968;2024-01-15T12:45:03;2.10;99.90
22288;DHT22;11312;51.464;6.968;2024-01-15T12:47:30;2.10;99.90
22288;DHT22;11312;51.464;6.968;2024-01-15T12:49:57;1.80;99.90
22288;DHT22;11312;51.464;6.968;2024-01-15T12:52:23;1.90;99.90
22288;DHT22;11312;51.464;6.968;2024-01-15T12:54:49;1.90;99.90
22288;DHT22;11312;51.464;6.968;2024-01-15T12:57:16;1.90;99.90
22288;DHT22;11312;51.464;6.968;2024-01-15T12:59:42;1.80;99.90
22288;DHT22;11312;51.464;6.968;2024-01-15T13:02:07;1.80;99.90
22288;DHT22;11312;51.464;6.968;2024-01-15T13:04:33;1.90;99.90
22288;DHT22;11312;51.464;6.968;2024-01-15T13:06:59;1.90;99.90
22288;DHT22;11312;51.464;6.968;2024-01-15T13:09:24;2.00;99.90
22288;DHT22;11312;51.464;6.968;2024-01-15T13:11:50;2.00;99.90
22288;DHT22;11312;51.464;6.968;2024-01-15T13:14:15;2.20;99.90
22288;DHT22;11312;51.464;6.968;2024-01-15T13:16:41;2.20;99.90
22288;DHT22;11312;51.464;6.968;2024-01-15T13:19:10;2.30;99.90
22288;DHT22;11312;51.464;6.968;2024-01-15T13:21:41;2.20;99.90
22288;DHT22;11312;51.464;6.968;2024-01-15T13:24:07;2.40;99.90
22288;DHT22;11312;51.464;6.968;2024-01-15T13:26:33;2.40;99.90
22288;DHT22;11312;51.464;6.968;2024-01-15T13:29:02;2.50;99.90
22288;DHT22;11312;51.464;6.968;2024-01-15T13:31:30;2.30;99.90
22288;DHT22;11312;51.464;6.968;2024-01-15T13:33:56;2.40;99.90
22288;DHT22;11312;51.464;6.968;2024-01-15T13:36:22;2.40;99.90
22288;DHT22;11312;51.464;6.968;2024-01-15T13:38:49;2.40;99.90
22288;DHT22;11312;51.464;6.968;2024-01-15T13:41:16;2.40;99.90
22288;DHT22;11312;51.464;6.968;2024-01-15T13:43:45;2.40;99.90
22288;DHT22;11312;51.464;6.968;2024-01-15T13:46:11;2.50;99.90
22288;DHT22;11312;51.464;6.968;2024-01-15T13:48:36;2.50;99.90
22288;DHT22;11312;51.464;6.968;2024-01-15T13:51:02;2.40;99.90
22288;DHT22;11312;51.464;6.968;2024-01-15T13:53:28;2.30;99.90
22288;DHT22;11312;51.464;6.968;2024-01-15T13:55:53;2.40;99.90
22288;DHT22;11312;51.464;6.968;2024-01-15T13:58:19;2.40;99.90
22288;DHT22;11312;51.464;6.968;2024-01-15T14:00:47;2.30;99.90
22288;DHT22;11312;51.464;6.968;2024-01-15T14:03:12;2.40;99.90
22288;DHT22;11312;51.464;6.968;2024-01-15T14:05:38;2.30;99.90
22288;DHT22;11312;51.464;6.968;2024-01-15T14:08:04;2.40;99.90
22288;DHT22;11312;51.464;6.968;2024-01-15T14:10:29;2.40;99.90
22288;DHT22;11312;51.464;6.968;2024-01-15T14:12:55;2.30;99.90
22288;DHT22;11312;51.464;6.968;2024-01-15T14:15:21;2.20;99.90
22288;DHT22;11312;51.464;6.968;2024-01-15T14:17:47;2.20;99.90
22288;DHT22;11312;51.464;6.968;2024-01-15T14:20:13;2.40;99.90
22288;DHT22;11312;51.464;6.968;2024-01-15T14:22:38;2.30;99.90
22288;DHT22;11312;51.464;6.968;2024-01-15T14:25:04;2.30;99.90
22288;DHT22;11312;51.464;6.968;2024-01-15T14:27:30;2.40;99.90
22288;DHT22;11312;51.464;6.968;2024-01-15T14:29:55;2.20;99.90
22288;DHT22;11312;51.464;6.968;2024-01-15T14:32:21;2.20;99.90
22288;DHT22;11312;51.464;6.968;2024-01-15T14:34:47;2.40;99.90
22288;DHT22;11312;51.464;6.968;2024-01-15T14:37:13;2.40;99.90
22288;DHT22;11312;51.464;6.968;2024-01-15T14:39:39;2.30;99.90
22288;DHT22;11312;51.464;6.968;2024-01-15T14:42:04;2.40;99.90
22288;DHT22;11312;51.464;6.968;2024-01-15T14:44:31;2.40;99.90
22288;DHT22;11312;51.464;6.968;2024-01-15T14:46:59;2.30;99.90
22288;DHT22;11312;51.464;6.968;2024-01-15T14:49:24;2.30;99.90
22288;DHT22;11312;51.464;6.968;2024-01-15T14:51:50;2.30;99.90
22288;DHT22;11312;51.464;6.968;2024-01-15T14:54:16;2.40;99.90
22288;DHT22;11312;51.464;6.968;2024-01-15T14:56:42;2.50;99.90
22288;DHT22;11312;51.464;6.968;2024-01-15T14:59:08;3.00;99.90
22288;DHT22;11312;51.464;6.968;2024-01-15T15:01:35;2.50;99.90
22288;DHT22;11312;51.464;6.968;2024-01-15T15:04:00;2.30;99.90
22288;DHT22;11312;51.464;6.968;2024-01-15T15:06:26;2.30;99.90
22288;DHT22;11312;51.464;6.968;2024-01-15T15:08:53;2.10;99.90
22288;DHT22;11312;51.464;6.968;2024-01-15T15:11:25;1.90;99.90
22288;DHT22;11312;51.464;6.968;2024-01-15T15:13:51;2.00;99.90
22288;DHT22;11312;51.464;6.968;2024-01-15T15:16:17;2.00;99.90
22288;DHT22;11312;51.464;6.968;2024-01-15T15:18:43;1.90;99.90
22288;DHT22;11312;51.464;6.968;2024-01-15T15:21:11;2.00;99.90
22288;DHT22;11312;51.464;6.968;2024-01-15T15:23:36;2.00;99.90
22288;DHT22;11312;51.464;6.968;2024-01-15T15:26:04;1.80;99.90
22288;DHT22;11312;51.464;6.968;2024-01-15T15:28:31;1.90;99.90
22288;DHT22;11312;51.464;6.968;2024-01-15T15:30:56;1.90;99.90
22288;DHT22;11312;51.464;6.968;2024-01-15T15:33:22;2.00;99.90
22288;DHT22;11312;51.464;6.968;2024-01-15T15:35:49;1.90;99.90
22288;DHT22;11312;51.464;6.968;2024-01-15T15:38:17;2.10;99.90
22288;DHT22;11312;51.464;6.968;2024-01-15T15:40:42;2.00;99.90
22288;DHT22;11312;51.464;6.968;2024-01-15T15:43:08;2.10;99.90
22288;DHT22;11312;51.464;6.968;2024-01-15T15:45:34;2.00;99.90
22288;DHT22;11312;51.464;6.968;2024-01-15T15:47:59;1.90;99.90
22288;DHT22;11312;51.464;6.968;2024-01-15T15:50:25;2.00;99.90
22288;DHT22;11312;51.464;6.968;2024-01-15T15:52:51;2.10;99.90
22288;DHT22;11312;51.464;6.968;2024-01-15T15:55:16;1.80;99.90
22288;DHT22;11312;51.464;6.968;2024-01-15T15:57:43;1.90;99.90
22288;DHT22;11312;51.464;6.968;2024-01-15T16:00:09;1.80;99.90
22288;DHT22;11312;51.464;6.968;2024-01-15T16:02:35;1.70;99.90